Andover, New Hampshire
Current Conditions -  °F | °C
As of 11:15 PM on Monday 22 Dec 2014 (Local Time) from KLCI Reporting Station
Overcast Overcast  
Wind Chill: 24°   Ceiling: 4800
Heat Index: 32°   Visibility: 5mi
Dew Point: 28°   Wind: 9mph
Humidity: 87%   Direction: 50°NE
Pressure: 30.3"   Gusts: NA
Location:  43.44°N, 71.82°W
Report Text: KLCI 230415Z AUTO 05008KT 5SM SCT022 SCT026 OVC048 00/M02 A3030 RMK AO1
Loading
Personal Weather Stations






























Interactive Weather Map New forecast layout! Learn more

10-Day Weather Forecast

Advertisements
Track Severe Weather on mobile